Logo AVAMET
Benvolgut visitant, si us plau, ingressa Recuperar contrasenya
AVAMET paisatges

Alacant IES Miguel Hdez. (Sant Blai)

Dades diàries. Acumulats / Últims 30 dies disponibles

Data Temperatura (°C) Humitat rel. (%) Pressió rel. (hPa) Vent (km/h) Precipitació
Mínima Mitjana Màxima Amplitud
tèrmica
Mínima Mitjana Màxima Mínima Mitjana Màxima Predom. Mitjana Ràfega
màxima
Total
(mm)
Índex-n
Mínima Mitjana Màxima Mínima Mitjana Màxima n
0 a 1
P0 max
mm 5'
Dades mensuals acumulades fins l'últim dia disponible
12/2020 5,2 8,3 10,9 13,4 16,3 18,7 20,9 15,7 15 46 75 1.005 1.014 1.023   4,7 33,8 0,0
Dades anuals acumulades fins l'últim dia disponible
2020 3,7 16,3 26,2 19,8 11,6 24,0 34,7 31,0 10 58 84 991 1.018 1.034   4,4 77,2 205,6
Últims 30 dies disponibles
03-12-2020 5,2     10,7     16,3 11,1 24 38 51 1.005 1.011 1.016 ONO 4,2 33,8 0,0
02-12-2020 8,9     14,5     18,8 9,9 15 35 55 1.011 1.013 1.016 OSO 6,4 30,6 0,0
01-12-2020 10,9     15,0     20,9 10,0 43 64 75 1.015 1.019 1.023 O 3,5 20,9 0,0
30-11-2020 10,7     14,5     18,8 8,1 57 69 75 1.020 1.021 1.023 S 3,1 20,9 0,0
29-11-2020 10,7     15,0     20,2 9,5 46 60 72 1.011 1.015 1.019 SO 3,2 33,8 0,0
28-11-2020 12,3     15,1     18,7 6,4 46 60 78 1.003 1.005 1.010 ONO 5,4 41,8 0,8 0,20
27-11-2020 12,8     15,7     18,4 5,6 59 71 80 1.004 1.006 1.010 E 8,1 41,8 4,0 0,51 0,80
26-11-2020 14,7     17,3     20,7 6,0 52 65 72 1.010 1.012 1.015 NE 5,7 33,8 0,0
25-11-2020 8,7     13,6     19,3 10,6 51 67 74 1.014 1.017 1.020 S 2,3 20,9 0,0
24-11-2020 9,3     13,3     18,3 9,0 49 66 72 1.020 1.023 1.027 O 3,8 20,9 0,0
23-11-2020 8,7     13,0     19,1 10,4 47 62 71 1.026 1.027 1.029 OSO 3,2 17,7 0,0
22-11-2020 9,3     13,5     19,6 10,3 43 59 70 1.026 1.028 1.029 SSO 2,5 20,9 0,0
21-11-2020 10,4     14,3     19,7 9,3 45 61 70 1.027 1.028 1.029 S 3,0 22,5 0,0
20-11-2020 12,1     15,7     19,9 7,8 50 63 75 1.025 1.027 1.029 SSE 2,8 22,5 0,0
19-11-2020 14,8     17,5     23,1 8,3 47 69 78 1.027 1.029 1.030 S 2,0 19,3 0,0
18-11-2020 15,0     17,6     21,0 6,0 62 73 79 1.026 1.027 1.028 OSO 2,7 19,3 0,0
17-11-2020 15,7     18,6     23,7 8,0 55 70 79 1.024 1.026 1.027 S 3,0 33,8 0,0
16-11-2020 17,2     20,6     27,4 10,2 36 57 69 1.019 1.021 1.025 SSE 4,3 33,8 0,0
15-11-2020 15,1     19,5     25,6 10,5 39 63 80 1.019 1.021 1.022 SSO 3,2 32,2 0,0
14-11-2020 15,1     17,6     20,4 5,3 62 71 78 1.020 1.021 1.022 OSO 1,8 20,9 0,0
13-11-2020 15,9     18,3     23,5 7,6 45 64 75 1.019 1.020 1.021 SO 2,6 20,9 0,0
12-11-2020 11,7     16,2     21,2 9,5 42 63 72 1.021 1.022 1.024 SSO 3,2 19,3 0,0
11-11-2020 12,0     15,9     21,1 9,1 50 68 75 1.023 1.025 1.026 SSO 2,7 22,5 0,0
10-11-2020 13,8     17,2     21,9 8,1 55 67 75 1.022 1.024 1.026 SSE 2,6 22,5 0,0
09-11-2020 12,8     16,5     21,7 8,9 45 68 76 1.021 1.022 1.023 S 2,0 17,7 0,0
08-11-2020 13,8     17,5     22,8 9,0 44 59 69 1.021 1.023 1.024 SSE 2,6 40,2 0,0
07-11-2020 17,1     20,4     23,8 6,7 47 60 73 1.014 1.019 1.023 SE 4,5 40,2 0,6
06-11-2020 19,3     22,3     24,8 5,5 36 55 67 1.015 1.017 1.020 NE 6,9 48,3 0,0
05-11-2020 18,6     19,7     21,6 3,0 61 71 79 1.017 1.019 1.021 NE 11,7 48,3 0,8
04-11-2020 15,9     18,1     21,8 5,9 52 64 76 1.016 1.019 1.023 ENE 3,8 24,1 0,6 0,20
Últims 13 mesos disponibles
10/2020 10,9 15,5 19,6 19,4 19,9 24,4 30,3 19,4 33 51 69 999 1.016 1.025 3,3 64,4 6,8
09/2020 15,7 20,6 23,6 24,1 24,4 28,1 31,4 15,7 28 54 65 1.011 1.017 1.023 SSE 4,5 48,3 2,4
08/2020 18,3 23,8 26,2 27,0 26,6 30,7 34,7 16,4 41 61 71 1.003 1.013 1.018 SE 4,0 41,8 8,8
07/2020 21,7 23,2 25,5 26,4 27,1 29,9 33,7 12,0 44 59 74 1.011 1.015 1.020 ESE 4,2 41,8 0,2
06/2020 15,3 19,9 22,2 23,3 23,3 27,1 32,3 17,0 34 59 71 1.004 1.014 1.021 SE 4,7 46,7 8,4
05/2020 13,8 17,5 20,8 21,3 20,9 25,3 31,6 17,8 40 55 70 1.006 1.016 1.026 ESE 4,2 43,5 29,0
04/2020 10,1 13,5 17,3 16,7 17,4 20,6 27,4 17,3 39 60 73 1.006 1.015 1.025 ESE 4,5 48,3 35,2
03/2020 8,5 12,3 18,5 15,4 11,6 19,4 24,9 16,4 31 56 77 1.008 1.016 1.025 E 5,8 77,2 72,0
02/2020 7,3 11,2 15,1 15,4 14,6 20,7 28,2 20,9 26 58 78 1.014 1.025 1.033 SE 3,7 45,1 1,4
01/2020 3,7 8,5 16,2 12,3 14,2 17,3 23,0 19,3 45 60 72 1.013 1.024 1.032 O 4,2 54,7 34,6
12/2019 7,9 11,3 17,0 14,6 14,2 19,4 24,9 17,0 32 58 74 1.005 1.018 1.032 SO 4,7 70,8 49,2
11/2019 8,0 13,1 21,2 16,3 14,3 20,3 28,7 20,7 32 46 76 1.000 1.011 1.018 O 7,9 67,6 20,0
10/2019 12,0 16,5 21,4 20,5 16,6 24,9 30,9 18,9 38 59 74 1.008 1.016 1.021 OSO 3,5 38,6 34,2
Tots els anys disponibles
2019 3,2 15,4 26,4 18,9 13,4 23,2 36,0 32,8 21 55 77 996 1.016 1.032 N 4,7 77,2 419,4
2018 4,4 15,7 27,9 19,0 10,7 23,0 34,9 30,5 19 55 76 993 1.015 1.034 N 3,9 78,9 265,6
2017 3,6 16,7 28,4 20,8 12,7 24,9 35,4 31,8 45 53 61 1.001 1.016 1.023 5,3 60,0 201,4
Temperatura (°C)
Humitat relativa (%)
Velocitat del vent i ràfega màxima (km/h)
Direcció del vent (°)
Precipitació (mm)
Nota sobre les dades: s'avisa a l'usuari de la provisionalitat i no oficialitat d'aquestes dades
Logo AVAMET blanc
Web allotjada a Sollutia
Llicència de Creative CommonsLa web d'AVAMET i els seus continguts estan subjectes a una llicència de
Reconeixement - No Comercial - Compartir igual
Avís legal - Política de privacitat - Política de cookies
NOVES ESTACIONS: València - l'Olivereta (Soci), Xixona - Carrasqueta/Bugaia (Soci), l'Alcúdia de Crespins/Canals - la Muntanyeta (Soci), Utiel - est (Soci), Xàbia - Cansalades (Soci), Alginet (Soci), Quatretondeta (Ajuntament Soci) Enguera - Benali (Soci/ADENE), la Vall d'Alba - sud (Ajuntament Soci), El Fondó dels Frares (Estació pròpia d'AVAMET nº34) - - -